Ellenton, Georgia
Current Conditions -  °F | °C
As of 4:15 PM on Saturday 20 Dec 2014 (Local Time) from KMGR Reporting Station
Overcast Overcast  
Wind Chill: 57°   Ceiling: 9500
Heat Index: 57°   Visibility: 10mi
Dew Point: 52°   Wind: 5mph
Humidity: 82%   Direction: 50°NE
Pressure: 30.1"   Gusts: NA
Location:  31.18°N, 83.59°W
Report Text: KMGR 202115Z AUTO 05004KT 10SM OVC095 14/11 A3010 RMK AO2
Loading
Personal Weather Stations






























Interactive Weather Map New forecast layout! Learn more

10-Day Weather Forecast

Advertisements
Track Severe Weather on mobile